Time;durP1;ratioP1;P1;durP2;ratioP2;P2;SDS_P1;SDS_P2;PMS_P1;PMS_P2;Temp;Humidity;BMP_temperature;BMP_pressure;BME280_temperature;BME280_humidity;BME280_pressure;Samples;Min_cycle;Max_cycle;Signal;HPM_P1;HPM_P2
2023/01/20 00:01:13;;;;;;;29.40;12.50;;;;;;;1.79;100.00;100069.91;8328302;28;20518;-56
2023/01/20 00:05:14;;;;;;;35.00;14.25;;;;;;;2.08;100.00;100070.75;8327805;28;20073;-57
2023/01/20 00:09:16;;;;;;;32.33;14.30;;;;;;;2.22;100.00;100082.22;8327056;28;20041;-57
2023/01/20 00:13:17;;;;;;;28.30;13.15;;;;;;;2.23;100.00;100086.63;8327170;28;20052;-56
2023/01/20 00:17:17;;;;;;;27.45;12.65;;;;;;;2.16;100.00;100079.94;8327734;28;20045;-57
2023/01/20 00:21:18;;;;;;;25.48;12.25;;;;;;;2.18;100.00;100087.84;8326769;28;20033;-56
2023/01/20 00:25:19;;;;;;;34.20;13.15;;;;;;;2.19;100.00;100085.09;8326924;28;20188;-57
2023/01/20 00:29:19;;;;;;;27.02;12.18;;;;;;;2.20;100.00;100084.16;8327357;28;20037;-57
2023/01/20 00:33:20;;;;;;;26.85;12.52;;;;;;;2.42;100.00;100089.78;8326704;28;20045;-56
2023/01/20 00:37:20;;;;;;;30.58;13.40;;;;;;;2.55;100.00;100087.16;8327340;28;20041;-57
2023/01/20 00:41:20;;;;;;;31.65;13.48;;;;;;;2.59;100.00;100094.88;8326939;28;20060;-58
2023/01/20 00:45:21;;;;;;;30.60;13.00;;;;;;;2.62;100.00;100105.34;8324887;28;20045;-56
2023/01/20 00:49:21;;;;;;;29.80;11.55;;;;;;;2.62;100.00;100102.66;8325915;28;20125;-57
2023/01/20 00:53:22;;;;;;;28.95;12.52;;;;;;;2.63;100.00;100111.53;8325681;28;20439;-56
2023/01/20 00:57:22;;;;;;;29.75;12.73;;;;;;;2.60;100.00;100099.25;8324680;28;20041;-57
2023/01/20 01:01:23;;;;;;;23.50;11.50;;;;;;;2.59;99.91;100100.19;8321955;28;20034;-56
2023/01/20 01:05:23;;;;;;;29.52;11.60;;;;;;;2.54;99.77;100113.00;8319820;28;20090;-57
2023/01/20 01:09:24;;;;;;;26.25;11.98;;;;;;;2.48;99.90;100116.06;8325700;28;20049;-57
2023/01/20 01:13:24;;;;;;;28.27;12.93;;;;;;;2.48;100.00;100118.72;8321522;28;20038;-55
2023/01/20 01:17:25;;;;;;;25.45;11.98;;;;;;;2.52;100.00;100114.91;8324966;28;20048;-57
2023/01/20 01:21:26;;;;;;;25.38;12.98;;;;;;;2.60;100.00;100120.59;8325038;28;20566;-57
2023/01/20 01:25:26;;;;;;;26.42;12.07;;;;;;;2.62;99.75;100126.69;8325432;28;20076;-56
2023/01/20 01:29:27;;;;;;;35.45;12.75;;;;;;;2.52;100.00;100130.03;8325864;28;20041;-57
2023/01/20 01:33:28;;;;;;;27.17;12.15;;;;;;;2.34;100.00;100137.44;8308057;28;20095;-57
2023/01/20 01:37:29;;;;;;;33.83;13.70;;;;;;;2.11;100.00;100137.19;8325789;28;20525;-58
2023/01/20 01:41:29;;;;;;;30.02;13.05;;;;;;;2.08;100.00;100140.91;8325398;28;20445;-58
2023/01/20 01:45:31;;;;;;;29.40;13.35;;;;;;;2.14;100.00;100151.19;8325695;28;20041;-56
2023/01/20 01:49:32;;;;;;;30.23;13.30;;;;;;;2.17;100.00;100143.00;8325478;28;20048;-58
2023/01/20 01:53:38;;;;;;;27.75;12.55;;;;;;;2.20;100.00;100160.59;8325397;28;20038;-54
2023/01/20 01:57:39;;;;;;;32.85;13.20;;;;;;;2.21;100.00;100163.16;8325631;28;20033;-58
2023/01/20 02:01:44;;;;;;;30.65;13.23;;;;;;;2.16;100.00;100170.59;8325451;28;20398;-58
2023/01/20 02:05:49;;;;;;;37.22;13.57;;;;;;;2.08;100.00;100162.25;8323608;28;20049;-54
2023/01/20 02:09:50;;;;;;;29.60;13.60;;;;;;;2.02;100.00;100171.47;8324285;28;20152;-58
2023/01/20 02:13:51;;;;;;;27.90;13.35;;;;;;;2.08;100.00;100173.75;8325006;28;20045;-58
2023/01/20 02:18:19;;;;;;;35.97;13.70;;;;;;;2.09;100.00;100169.28;8325098;28;20040;-56
2023/01/20 02:22:59;;;;;;;36.22;14.02;;;;;;;2.20;100.00;100177.47;8322728;28;20125;-55
2023/01/20 02:27:33;;;;;;;33.60;13.82;;;;;;;2.41;100.00;100178.75;8324071;28;20038;-58
2023/01/20 02:36:57;;;;;;;34.83;16.15;;;;;;;2.51;100.00;100187.91;8372919;27;20392;-55
2023/01/20 02:41:16;;;;;;;31.98;14.98;;;;;;;2.40;100.00;100184.19;8359635;28;20041;-58
2023/01/20 02:45:42;;;;;;;35.45;16.00;;;;;;;2.31;100.00;100190.97;8371503;28;20390;-52
2023/01/20 02:50:12;;;;;;;35.15;15.05;;;;;;;2.31;100.00;100196.28;8370428;28;20045;-58
2023/01/20 02:54:16;;;;;;;41.35;16.05;;;;;;;2.16;100.00;100197.25;8385652;28;20043;-58
2023/01/20 02:58:38;;;;;;;40.30;17.45;;;;;;;2.18;100.00;100191.81;8387110;28;20073;-52
2023/01/20 03:02:40;;;;;;;37.33;17.55;;;;;;;2.25;100.00;100196.69;8386646;28;20059;-52
2023/01/20 03:06:48;;;;;;;44.70;18.67;;;;;;;2.23;100.00;100208.41;8387352;28;20042;-56
2023/01/20 03:10:51;;;;;;;41.22;18.50;;;;;;;2.20;100.00;100193.47;8384897;28;20095;-58
2023/01/20 03:14:52;;;;;;;43.60;17.48;;;;;;;2.19;100.00;100185.56;8386246;28;20048;-58
2023/01/20 03:18:54;;;;;;;46.70;18.70;;;;;;;2.22;100.00;100188.88;8385965;28;20509;-58
2023/01/20 03:22:54;;;;;;;42.45;17.70;;;;;;;2.19;100.00;100194.41;8385282;28;20106;-58
2023/01/20 03:26:55;;;;;;;36.13;17.83;;;;;;;2.22;100.00;100199.53;8385704;28;20090;-53
2023/01/20 03:30:57;;;;;;;44.33;17.63;;;;;;;2.16;100.00;100207.09;8385464;28;20071;-54
2023/01/20 03:34:58;;;;;;;38.35;17.77;;;;;;;2.04;100.00;100203.34;8383717;28;20089;-51
2023/01/20 03:38:59;;;;;;;39.17;17.90;;;;;;;1.88;100.00;100202.59;8385829;28;20041;-49
2023/01/20 03:43:11;;;;;;;39.38;17.67;;;;;;;1.78;100.00;100201.44;8384485;28;20037;-52
2023/01/20 03:47:47;;;;;;;46.97;18.80;;;;;;;1.85;100.00;100208.97;8365364;28;20060;-53
2023/01/20 03:52:00;;;;;;;43.55;19.27;;;;;;;1.83;100.00;100220.69;8363105;28;20037;-51
2023/01/20 03:56:08;;;;;;;46.40;18.25;;;;;;;1.76;100.00;100229.97;8362993;28;20049;-55
2023/01/20 04:00:10;;;;;;;39.78;18.17;;;;;;;1.58;100.00;100242.59;8363258;28;20091;-54
2023/01/20 04:04:15;;;;;;;;;;;;;;;1.55;100.00;100233.91;8362995;28;20040;-49
2023/01/20 04:08:19;;;;;;;43.45;17.13;;;;;;;1.72;100.00;100223.13;8363083;28;19939;-48
2023/01/20 04:12:19;;;;;;;46.13;19.63;;;;;;;1.84;100.00;100238.38;8357147;28;20043;-51
2023/01/20 04:16:22;;;;;;;42.63;18.67;;;;;;;1.85;100.00;100235.63;8355853;28;20064;-53
2023/01/20 04:20:23;;;;;;;42.10;18.02;;;;;;;1.90;100.00;100238.00;8362608;28;20041;-50
2023/01/20 04:24:28;;;;;;;49.83;19.30;;;;;;;1.94;100.00;100244.84;8362107;28;20025;-50
2023/01/20 04:28:28;;;;;;;39.95;18.40;;;;;;;2.10;100.00;100250.97;8361805;28;20045;-51
2023/01/20 04:32:29;;;;;;;47.33;18.20;;;;;;;1.98;100.00;100235.72;8361049;28;20494;-52
2023/01/20 04:36:29;;;;;;;42.53;18.15;;;;;;;2.08;100.00;100257.34;8361298;28;20361;-53
2023/01/20 04:40:30;;;;;;;48.80;17.25;;;;;;;2.16;100.00;100255.06;8362121;28;20041;-51
2023/01/20 04:44:30;;;;;;;42.85;18.17;;;;;;;2.16;100.00;100257.75;8361332;28;20147;-53
2023/01/20 04:48:31;;;;;;;43.95;18.27;;;;;;;2.27;100.00;100264.13;8355316;28;20034;-53
2023/01/20 04:52:31;;;;;;;45.63;17.42;;;;;;;2.19;100.00;100266.38;8360941;28;20550;-51
2023/01/20 04:56:32;;;;;;;38.55;16.35;;;;;;;2.17;100.00;100262.97;8360075;28;20045;-53
2023/01/20 05:00:32;;;;;;;38.50;15.65;;;;;;;2.18;100.00;100270.00;8361188;28;20517;-49
2023/01/20 05:04:33;;;;;;;32.65;14.73;;;;;;;2.24;100.00;100269.63;8360788;28;20425;-55
2023/01/20 05:08:33;;;;;;;34.50;13.90;;;;;;;2.30;100.00;100271.06;8360979;28;20038;-51
2023/01/20 05:12:34;;;;;;;30.80;13.13;;;;;;;2.30;100.00;100274.59;8360200;28;20498;-53
2023/01/20 05:16:34;;;;;;;31.20;14.88;;;;;;;2.27;100.00;100274.78;8360386;28;20498;-56
2023/01/20 05:20:34;;;;;;;33.42;14.20;;;;;;;2.17;100.00;100257.66;8356770;28;20033;-57
2023/01/20 05:24:35;;;;;;;31.52;13.27;;;;;;;2.15;100.00;100275.53;8350981;28;20499;-56
2023/01/20 05:28:36;;;;;;;26.17;12.02;;;;;;;2.17;100.00;100278.97;8349266;28;20044;-57
2023/01/20 05:32:36;;;;;;;22.38;12.02;;;;;;;2.17;100.00;100289.63;8344693;28;20072;-56
2023/01/20 05:36:37;;;;;;;25.27;11.68;;;;;;;2.19;100.00;100287.72;8356236;28;20052;-56
2023/01/20 05:40:37;;;;;;;28.23;10.98;;;;;;;2.29;100.00;100299.56;8356560;28;20044;-56
2023/01/20 05:44:38;;;;;;;22.65;11.52;;;;;;;2.36;100.00;100295.56;8356002;28;20122;-56
2023/01/20 05:48:38;;;;;;;23.20;10.98;;;;;;;2.39;99.76;100306.03;8354774;28;20044;-56
2023/01/20 05:52:38;;;;;;;30.02;11.35;;;;;;;2.33;100.00;100294.88;8355485;28;20048;-57
2023/01/20 05:56:39;;;;;;;28.55;11.80;;;;;;;2.23;100.00;100302.59;8354278;28;20044;-57
2023/01/20 06:00:39;;;;;;;23.25;12.40;;;;;;;2.20;100.00;100300.13;8352963;28;20041;-57
2023/01/20 06:04:40;;;;;;;25.42;12.68;;;;;;;2.19;100.00;100293.06;8355618;28;20041;-56
2023/01/20 06:08:40;;;;;;;30.58;12.63;;;;;;;2.18;100.00;100302.00;8352537;28;20124;-51
2023/01/20 06:12:41;;;;;;;25.63;12.15;;;;;;;2.13;100.00;100304.09;8355219;28;20041;-51
2023/01/20 06:16:42;;;;;;;27.67;11.77;;;;;;;2.24;100.00;100325.63;8355497;28;20049;-53
2023/01/20 06:20:42;;;;;;;27.25;12.50;;;;;;;2.26;100.00;100321.09;8353611;28;20586;-51
2023/01/20 06:24:42;;;;;;;24.05;11.25;;;;;;;2.25;100.00;100335.34;8354774;28;20521;-53
2023/01/20 06:28:43;;;;;;;23.27;10.50;;;;;;;2.31;99.62;100334.13;8354977;28;20045;-52
2023/01/20 06:32:46;;;;;;;26.70;10.38;;;;;;;2.26;98.72;100342.41;8351154;28;20037;-52
2023/01/20 06:36:46;;;;;;;21.87;10.37;;;;;;;1.85;99.96;100347.53;8353054;28;20045;-55
2023/01/20 06:40:47;;;;;;;24.83;10.50;;;;;;;1.50;100.00;100345.22;8351592;28;20037;-52
2023/01/20 06:44:48;;;;;;;22.00;9.73;;;;;;;1.40;100.00;100336.03;8351808;28;20410;-52
2023/01/20 06:48:48;;;;;;;19.17;10.18;;;;;;;1.28;100.00;100340.25;8348835;28;20048;-53
2023/01/20 06:52:49;;;;;;;24.50;10.65;;;;;;;1.23;100.00;100349.44;8350815;28;20073;-54
2023/01/20 06:56:50;;;;;;;25.95;11.07;;;;;;;1.20;100.00;100353.16;8352176;28;20065;-52
2023/01/20 07:00:51;;;;;;;19.83;10.18;;;;;;;1.24;100.00;100364.47;8352525;28;20049;-52
2023/01/20 07:04:52;;;;;;;21.58;9.50;;;;;;;1.09;100.00;100370.63;8351856;28;20071;-53
2023/01/20 07:08:53;;;;;;;22.63;9.77;;;;;;;1.13;100.00;100361.56;8351942;28;20054;-53
2023/01/20 07:12:53;;;;;;;29.00;10.52;;;;;;;1.15;100.00;100376.50;8351214;28;20146;-52
2023/01/20 07:16:53;;;;;;;23.63;11.27;;;;;;;1.09;100.00;100381.28;8367074;28;20071;-50
2023/01/20 07:20:55;;;;;;;17.85;9.82;;;;;;;1.13;100.00;100377.53;8357052;28;20033;-52
2023/01/20 07:24:55;;;;;;;25.83;10.70;;;;;;;1.14;100.00;100374.78;8359856;28;20044;-55
2023/01/20 07:28:57;;;;;;;31.13;11.50;;;;;;;1.09;100.00;100381.28;8360644;28;20102;-52
2023/01/20 07:32:58;;;;;;;35.40;14.20;;;;;;;1.05;100.00;100379.75;8359365;28;20044;-53
2023/01/20 07:37:01;;;;;;;69.10;24.52;;;;;;;0.97;100.00;100393.47;8359119;28;20049;-53
2023/01/20 07:41:03;;;;;;;31.25;15.48;;;;;;;0.88;100.00;100403.78;8358130;28;20056;-53
2023/01/20 07:45:05;;;;;;;25.48;10.77;;;;;;;1.03;100.00;100408.22;8359660;28;20098;-52
2023/01/20 07:49:05;;;;;;;23.70;10.55;;;;;;;1.09;100.00;100408.78;8374979;28;20067;-53
2023/01/20 07:53:06;;;;;;;23.63;9.85;;;;;;;0.89;100.00;100421.44;8357590;28;20120;-52
2023/01/20 07:57:07;;;;;;;20.60;11.27;;;;;;;0.83;100.00;100421.78;8357528;28;20107;-52
2023/01/20 08:01:14;;;;;;;24.40;11.00;;;;;;;0.99;100.00;100433.31;8352016;28;20044;-53
2023/01/20 08:05:15;;;;;;;24.35;10.20;;;;;;;1.18;100.00;100428.69;8347955;28;20091;-53
2023/01/20 08:09:15;;;;;;;26.67;10.65;;;;;;;1.28;100.00;100437.91;8334934;28;20037;-53
2023/01/20 08:13:16;;;;;;;26.27;11.23;;;;;;;1.39;100.00;100436.38;8343551;28;20059;-52
2023/01/20 08:17:16;;;;;;;29.25;13.88;;;;;;;1.47;100.00;100447.44;8349970;28;20053;-53
2023/01/20 08:21:21;;;;;;;20.13;9.93;;;;;;;1.52;97.99;100434.72;8357447;28;20037;-53
2023/01/20 08:25:21;;;;;;;19.65;9.00;;;;;;;1.73;96.93;100437.97;8356945;28;20426;-54
2023/01/20 08:29:21;;;;;;;13.85;7.38;;;;;;;1.79;95.41;100433.16;8357865;28;20059;-50
2023/01/20 08:33:22;;;;;;;14.88;7.55;;;;;;;1.92;95.16;100443.97;8353439;28;20044;-52
2023/01/20 08:37:22;;;;;;;18.98;8.32;;;;;;;1.81;95.50;100462.41;8358060;28;20048;-51
2023/01/20 08:41:26;;;;;;;15.75;7.68;;;;;;;1.69;97.11;100463.09;8357598;28;20399;-54
2023/01/20 08:45:27;;;;;;;18.00;8.65;;;;;;;1.74;96.79;100471.69;8354365;28;20048;-54
2023/01/20 08:49:28;;;;;;;17.80;8.60;;;;;;;2.00;96.24;100468.38;8352680;28;20048;-53
2023/01/20 08:53:28;;;;;;;21.52;9.98;;;;;;;1.93;95.09;100461.69;8355256;28;20446;-58
2023/01/20 08:57:29;;;;;;;19.50;9.48;;;;;;;1.94;95.37;100463.41;8355523;28;20116;-58
2023/01/20 09:01:34;;;;;;;16.52;9.20;;;;;;;2.65;91.83;100470.69;8356606;28;20569;-59
2023/01/20 09:05:35;;;;;;;21.17;8.90;;;;;;;3.06;89.69;100466.38;8355989;28;20090;-56
2023/01/20 09:09:35;;;;;;;24.77;10.25;;;;;;;2.87;90.03;100467.59;8356450;28;20517;-54
2023/01/20 09:13:36;;;;;;;20.65;9.88;;;;;;;2.41;92.05;100474.81;8356317;28;20117;-57
2023/01/20 09:17:37;;;;;;;19.17;8.55;;;;;;;2.34;93.45;100476.16;8357043;28;20508;-54
2023/01/20 09:21:37;;;;;;;16.92;9.57;;;;;;;2.37;93.91;100469.75;8355770;28;20049;-54
2023/01/20 09:25:38;;;;;;;22.10;9.50;;;;;;;2.17;94.73;100473.63;8355921;28;20053;-54
2023/01/20 09:29:38;;;;;;;24.73;10.40;;;;;;;2.18;95.94;100466.47;8356105;28;20045;-57
2023/01/20 09:33:40;;;;;;;18.65;9.32;;;;;;;2.20;97.44;100460.09;8370914;28;20071;-56
2023/01/20 09:44:14;;;;;;;21.98;9.60;;;;;;;2.35;97.50;100459.19;8345391;28;20048;-56
2023/01/20 09:47:25;;;;;;;20.00;10.00;;;;;;;2.52;97.19;100466.19;8353823;28;20502;-58
2023/01/20 09:55:52;;;;;;;17.02;9.95;;;;;;;2.65;97.11;100477.88;8353157;28;20056;-57
2023/01/20 10:00:16;;;;;;;18.58;9.40;;;;;;;2.73;96.30;100486.25;8354771;28;20053;-57
2023/01/20 10:04:28;;;;;;;21.13;10.02;;;;;;;2.84;95.64;100481.13;8353391;28;20036;-49
2023/01/20 10:08:40;;;;;;;22.35;10.05;;;;;;;2.91;96.02;100475.34;8335520;28;20059;-56
2023/01/20 10:17:30;;;;;;;17.02;9.18;;;;;;;3.22;95.93;100488.50;8381663;27;20800;-55
2023/01/20 10:21:40;;;;;;;16.98;9.07;;;;;;;3.16;95.38;100480.00;8369570;27;20127;-55
2023/01/20 10:25:50;;;;;;;24.52;11.77;;;;;;;3.14;96.60;100472.09;8366059;28;20045;-54
2023/01/20 10:29:57;;;;;;;40.22;17.83;;;;;;;3.08;96.23;100477.81;8378176;28;20485;-58
2023/01/20 10:34:06;;;;;;;34.08;15.80;;;;;;;3.03;96.46;100477.25;8370512;27;20061;-57
2023/01/20 10:38:18;;;;;;;35.10;14.82;;;;;;;3.00;96.37;100472.09;8364001;28;20040;-57
2023/01/20 10:42:19;;;;;;;34.33;15.65;;;;;;;3.05;96.68;100472.66;8347693;28;21498;-55
2023/01/20 10:46:54;;;;;;;23.38;10.27;;;;;;;3.12;96.16;100474.03;8363164;28;20036;-56
2023/01/20 10:51:05;;;;;;;18.65;9.90;;;;;;;3.15;96.04;100470.28;8363199;27;20116;-57
2023/01/20 10:55:37;;;;;;;19.77;11.23;;;;;;;3.26;96.73;100470.50;8361895;28;20402;-55
2023/01/20 11:03:51;;;;;;;24.05;11.57;;;;;;;3.34;94.68;100458.34;8501886;27;20385;-58
2023/01/20 11:07:53;;;;;;;17.00;9.73;;;;;;;3.37;95.82;100462.63;8462159;27;20042;-52
2023/01/20 11:11:53;;;;;;;26.30;10.18;;;;;;;3.43;96.40;100467.59;8461133;27;20557;-51
2023/01/20 11:15:58;;;;;;;18.23;9.90;;;;;;;3.50;95.37;100464.44;8482422;27;20457;-52
2023/01/20 11:20:05;;;;;;;14.27;8.45;;;;;;;3.61;94.26;100461.97;8480826;27;20035;-53
2023/01/20 11:24:34;;;;;;;18.23;9.38;;;;;;;3.52;97.00;100473.22;8480983;27;20066;-51
2023/01/20 11:28:56;;;;;;;18.80;10.93;;;;;;;3.34;99.98;100474.38;8464550;27;20043;-52
2023/01/20 11:33:19;;;;;;;20.98;12.18;;;;;;;3.24;100.00;100473.25;8480231;27;20023;-52
2023/01/20 11:37:24;;;;;;;20.90;11.15;;;;;;;3.11;100.00;100472.28;8459614;27;20519;-53
2023/01/20 11:41:27;;;;;;;24.70;11.70;;;;;;;2.99;100.00;100473.03;8473638;27;20142;-55
2023/01/20 11:45:35;;;;;;;26.60;11.43;;;;;;;2.82;100.00;100475.91;8479101;27;20061;-55
2023/01/20 11:49:36;;;;;;;26.48;12.88;;;;;;;2.72;100.00;100480.06;8476393;27;20027;-55
2023/01/20 11:53:36;;;;;;;18.70;10.45;;;;;;;2.69;100.00;100485.59;8475117;27;20519;-55
2023/01/20 11:57:43;;;;;;;19.90;10.40;;;;;;;2.58;100.00;100477.38;8478646;27;20043;-55
2023/01/20 12:01:56;;;;;;;19.02;10.55;;;;;;;2.52;100.00;100480.41;8478789;27;20099;-54
2023/01/20 12:06:21;;;;;;;28.83;10.27;;;;;;;2.46;100.00;100478.09;8475282;27;20462;-55
2023/01/20 12:10:29;;;;;;;20.30;10.20;;;;;;;2.41;100.00;100471.31;8476508;27;20039;-55
2023/01/20 12:14:53;;;;;;;23.17;7.97;;;;;;;2.37;100.00;100465.28;8452018;27;20122;-55
2023/01/20 12:19:00;;;;;;;16.83;7.18;;;;;;;2.36;100.00;100471.59;8456738;27;20449;-52
2023/01/20 12:27:22;;;;;;;22.55;9.10;;;;;;;2.33;100.00;100466.44;8283042;27;20390;-54
2023/01/20 12:31:23;;;;;;;18.92;8.60;;;;;;;2.36;100.00;100468.06;8280447;28;20046;-52
2023/01/20 12:35:29;;;;;;;26.60;9.15;;;;;;;2.33;100.00;100465.56;8274644;28;20554;-55
2023/01/20 12:39:51;;;;;;;28.83;12.07;;;;;;;2.26;100.00;100451.75;8271723;28;20121;-54
2023/01/20 12:44:00;;;;;;;26.83;11.70;;;;;;;2.27;100.00;100465.91;8293256;28;20046;-56
2023/01/20 12:48:23;;;;;;;21.17;10.00;;;;;;;2.30;100.00;100463.06;8262755;28;20379;-55
2023/01/20 12:52:50;;;;;;;22.98;8.73;;;;;;;2.37;100.00;100467.97;8254517;28;20060;-55
2023/01/20 12:57:24;;;;;;;27.92;10.07;;;;;;;2.31;100.00;100457.66;8277931;28;20440;-55
2023/01/20 13:01:45;;;;;;;;;;;;;;;2.24;100.00;100461.63;8264675;28;20419;-55
2023/01/20 13:10:53;;;;;;;19.83;9.93;;;;;;;2.23;100.00;100454.59;8390423;27;20388;-55
2023/01/20 13:15:08;;;;;;;21.67;10.25;;;;;;;2.27;100.00;100456.13;8368311;28;20080;-56
2023/01/20 13:19:37;;;;;;;19.75;9.05;;;;;;;2.26;100.00;100453.53;8384789;28;20032;-58
2023/01/20 13:23:38;;;;;;;24.33;9.77;;;;;;;2.21;100.00;100450.28;8363583;28;20036;-56
2023/01/20 13:27:38;;;;;;;23.75;10.25;;;;;;;2.22;100.00;100447.53;8379291;28;20394;-57
2023/01/20 13:31:44;;;;;;;26.15;9.88;;;;;;;2.20;100.00;100452.13;8398507;28;20060;-57
2023/01/20 13:35:47;;;;;;;24.65;11.15;;;;;;;2.22;100.00;100455.53;8379168;28;20029;-56
2023/01/20 13:39:49;;;;;;;22.38;8.70;;;;;;;2.26;100.00;100456.22;8379004;28;20044;-57
2023/01/20 13:43:49;;;;;;;18.70;8.65;;;;;;;2.20;100.00;100449.44;8378678;28;20044;-58
2023/01/20 13:53:00;;;;;;;23.15;9.00;;;;;;;2.24;100.00;100453.63;8294905;28;20448;-57
2023/01/20 14:01:32;;;;;;;25.48;10.60;;;;;;;2.20;100.00;100469.91;8275255;28;20377;-58
2023/01/20 14:05:33;;;;;;;22.55;10.50;;;;;;;2.18;100.00;100462.00;8282045;28;20045;-58
2023/01/20 14:09:33;;;;;;;33.33;12.73;;;;;;;2.17;100.00;100468.28;8264662;28;20034;-57
2023/01/20 14:13:34;;;;;;;23.98;10.32;;;;;;;2.20;100.00;100470.78;8279317;28;20084;-57
2023/01/20 14:17:35;;;;;;;22.77;10.27;;;;;;;2.25;100.00;100474.00;8273418;28;20070;-57
2023/01/20 14:21:39;;;;;;;23.38;10.25;;;;;;;2.21;100.00;100471.63;8281066;28;20129;-57
2023/01/20 14:25:40;;;;;;;27.85;10.88;;;;;;;2.17;100.00;100476.28;8275227;28;20042;-57
2023/01/20 14:29:41;;;;;;;20.75;10.13;;;;;;;2.18;100.00;100480.66;8279561;28;20517;-57
2023/01/20 14:33:45;;;;;;;19.50;9.30;;;;;;;2.18;100.00;100478.00;8278487;28;20034;-57
2023/01/20 14:37:50;;;;;;;26.20;10.35;;;;;;;2.16;100.00;100473.72;8280259;28;20542;-57
2023/01/20 14:41:53;;;;;;;29.65;10.10;;;;;;;2.17;100.00;100486.94;8280985;28;20089;-57
2023/01/20 14:45:54;;;;;;;22.23;10.20;;;;;;;2.19;100.00;100494.88;8305749;28;20045;-58
2023/01/20 14:49:54;;;;;;;22.73;10.20;;;;;;;2.19;100.00;100495.69;8314818;28;20129;-57
2023/01/20 14:54:35;;;;;;;16.88;7.55;;;;;;;2.19;100.00;100495.69;8310029;28;20498;-57
2023/01/20 14:58:44;;;;;;;15.38;8.55;;;;;;;2.16;100.00;100503.88;8249214;28;20535;-57
2023/01/20 15:02:52;;;;;;;22.92;8.18;;;;;;;2.16;100.00;100511.88;8268621;28;20046;-58
2023/01/20 15:06:56;;;;;;;15.82;7.38;;;;;;;2.15;100.00;100520.84;8281084;28;20064;-59
2023/01/20 15:15:31;;;;;;;13.85;6.63;;;;;;;2.18;100.00;100533.13;8309292;27;20398;-57
2023/01/20 15:19:32;;;;;;;16.33;8.25;;;;;;;2.19;100.00;100533.03;8297790;28;20121;-57
2023/01/20 15:23:34;;;;;;;15.52;6.50;;;;;;;2.19;100.00;100537.53;8282591;28;20027;-57
2023/01/20 15:27:35;;;;;;;13.35;6.22;;;;;;;2.18;100.00;100539.31;8282981;28;20066;-58
2023/01/20 15:31:36;;;;;;;12.57;6.68;;;;;;;2.20;100.00;100553.44;8283298;28;20074;-58
2023/01/20 15:35:36;;;;;;;13.48;6.85;;;;;;;2.22;100.00;100554.19;8281101;28;20050;-59
2023/01/20 15:39:37;;;;;;;11.65;6.20;;;;;;;2.23;100.00;100555.94;8281851;28;20053;-58
2023/01/20 15:43:38;;;;;;;14.68;6.97;;;;;;;2.22;100.00;100558.69;8266798;28;20178;-57
2023/01/20 15:47:38;;;;;;;10.90;6.50;;;;;;;2.27;100.00;100568.13;8282289;28;20053;-57
2023/01/20 15:51:39;;;;;;;21.25;7.70;;;;;;;2.26;100.00;100574.44;8282730;28;20512;-58
2023/01/20 15:55:46;;;;;;;14.20;6.80;;;;;;;2.26;100.00;100577.09;8280950;28;20384;-59
2023/01/20 15:59:48;;;;;;;11.18;6.22;;;;;;;2.30;100.00;100588.44;8282828;28;20073;-59
2023/01/20 16:03:50;;;;;;;12.52;6.68;;;;;;;2.30;100.00;100589.28;8278934;28;20417;-57
2023/01/20 16:07:50;;;;;;;13.88;6.85;;;;;;;2.32;100.00;100597.22;8278706;28;20578;-57
2023/01/20 16:11:51;;;;;;;14.80;6.90;;;;;;;2.30;100.00;100607.97;8277244;28;21049;-57
2023/01/20 16:15:52;;;;;;;13.15;7.68;;;;;;;2.33;100.00;100609.59;8282764;28;20133;-56
2023/01/20 16:19:52;;;;;;;17.92;9.18;;;;;;;2.32;100.00;100614.09;8268708;28;20402;-56
2023/01/20 16:23:53;;;;;;;15.02;9.40;;;;;;;2.32;100.00;100624.75;8247363;28;20137;-56
2023/01/20 16:27:53;;;;;;;26.25;11.70;;;;;;;2.34;100.00;100629.97;8259777;28;20041;-57
2023/01/20 16:31:54;;;;;;;31.77;15.25;;;;;;;2.35;100.00;100632.56;8259870;28;20075;-56
2023/01/20 16:35:55;;;;;;;31.73;15.75;;;;;;;2.35;100.00;100640.56;8260403;28;20047;-57
2023/01/20 16:39:55;;;;;;;43.25;19.88;;;;;;;2.34;100.00;100646.84;8260015;28;20074;-56
2023/01/20 16:43:57;;;;;;;36.13;18.50;;;;;;;2.33;100.00;100652.25;8258921;28;20042;-56
2023/01/20 16:47:57;;;;;;;37.97;18.38;;;;;;;2.31;100.00;100660.34;8256819;28;20089;-56
2023/01/20 16:51:58;;;;;;;37.15;17.15;;;;;;;2.29;100.00;100659.59;8255480;28;20046;-56
2023/01/20 16:55:59;;;;;;;39.90;19.35;;;;;;;2.28;100.00;100665.03;8260159;28;20526;-56
2023/01/20 17:00:00;;;;;;;43.85;19.10;;;;;;;2.26;100.00;100678.44;8259765;28;20488;-56
2023/01/20 17:04:02;;;;;;;43.55;19.23;;;;;;;2.24;100.00;100680.31;8259659;28;20038;-57
2023/01/20 17:08:03;;;;;;;43.85;20.85;;;;;;;2.24;100.00;100690.97;8259527;28;20078;-56
2023/01/20 17:12:03;;;;;;;44.33;20.35;;;;;;;2.25;100.00;100694.53;8244599;28;20101;-57
2023/01/20 17:16:04;;;;;;;48.20;22.65;;;;;;;2.21;100.00;100693.81;8260511;28;20057;-56
2023/01/20 17:20:09;;;;;;;43.38;20.27;;;;;;;2.22;100.00;100695.53;8255058;28;20066;-56
2023/01/20 17:24:11;;;;;;;39.25;19.05;;;;;;;2.23;100.00;100710.59;8259071;28;20039;-58
2023/01/20 17:28:11;;;;;;;37.58;18.25;;;;;;;2.23;100.00;100715.94;8259207;28;20623;-58
2023/01/20 17:32:11;;;;;;;32.17;16.88;;;;;;;2.23;100.00;100726.59;8258017;28;20455;-57
2023/01/20 17:36:12;;;;;;;35.75;17.50;;;;;;;2.23;100.00;100731.94;8257505;28;20152;-57
2023/01/20 17:40:13;;;;;;;40.60;19.33;;;;;;;2.21;100.00;100739.16;8263977;28;20038;-57
2023/01/20 17:44:13;;;;;;;39.85;18.77;;;;;;;2.18;100.00;100741.97;8255811;28;20121;-57
2023/01/20 17:48:14;;;;;;;45.25;20.70;;;;;;;2.18;100.00;100741.13;8235520;28;20065;-57
2023/01/20 17:52:18;;;;;;;40.92;18.63;;;;;;;2.14;100.00;100750.22;8257136;28;20042;-58
2023/01/20 17:56:20;;;;;;;36.67;18.05;;;;;;;2.10;100.00;100762.84;8252720;28;20049;-58
2023/01/20 18:00:21;;;;;;;33.55;18.50;;;;;;;2.04;100.00;100764.03;8257513;28;20049;-57
2023/01/20 18:04:21;;;;;;;41.40;20.30;;;;;;;1.99;100.00;100766.09;8257902;28;20042;-57
2023/01/20 18:08:22;;;;;;;37.83;18.00;;;;;;;1.96;100.00;100776.06;8242859;28;20487;-60
2023/01/20 18:12:22;;;;;;;40.80;19.73;;;;;;;1.90;100.00;100781.72;8256896;28;20042;-60
2023/01/20 18:16:27;;;;;;;41.13;19.25;;;;;;;1.93;100.00;100789.56;8239718;28;20118;-56
2023/01/20 18:20:27;;;;;;;49.65;23.15;;;;;;;1.90;100.00;100787.06;8239131;28;20038;-56
2023/01/20 18:24:28;;;;;;;45.92;20.88;;;;;;;1.86;100.00;100804.16;8250581;28;20419;-56
2023/01/20 18:28:28;;;;;;;31.70;16.67;;;;;;;1.86;100.00;100809.47;8233900;28;20508;-56
2023/01/20 18:32:29;;;;;;;31.65;17.27;;;;;;;1.86;100.00;100806.81;8237322;28;20181;-57
2023/01/20 18:36:32;;;;;;;35.15;17.33;;;;;;;1.84;100.00;100819.34;8250609;28;20133;-56
2023/01/20 18:40:33;;;;;;;39.20;18.40;;;;;;;1.84;100.00;100822.00;8252905;28;20034;-56
2023/01/20 18:44:34;;;;;;;35.03;16.27;;;;;;;1.85;100.00;100821.06;8248424;28;20158;-56
2023/01/20 18:48:37;;;;;;;31.48;15.95;;;;;;;1.87;100.00;100825.38;8250682;28;20069;-57
2023/01/20 18:52:38;;;;;;;33.93;16.30;;;;;;;1.86;100.00;100831.66;8251398;28;20518;-57
2023/01/20 18:56:39;;;;;;;32.30;14.90;;;;;;;1.80;100.00;100844.44;8250572;28;20388;-56
2023/01/20 19:00:39;;;;;;;38.63;17.73;;;;;;;1.79;100.00;100843.56;8241986;28;20990;-56
2023/01/20 19:04:39;;;;;;;34.85;19.48;;;;;;;1.83;100.00;100850.47;8246321;28;20511;-57
2023/01/20 19:08:42;;;;;;;37.80;18.33;;;;;;;1.74;100.00;100850.09;8249165;28;20121;-57
2023/01/20 19:12:43;;;;;;;40.00;19.80;;;;;;;1.66;100.00;100854.91;8249187;28;20488;-56
2023/01/20 19:16:47;;;;;;;39.92;18.98;;;;;;;1.58;100.00;100865.09;8250907;28;20407;-57
2023/01/20 19:20:48;;;;;;;40.53;19.83;;;;;;;1.56;100.00;100872.31;8251480;28;20511;-57
2023/01/20 19:24:48;;;;;;;35.40;17.50;;;;;;;1.51;100.00;100884.97;8250156;28;20423;-56